Time;durP1;ratioP1;P1;durP2;ratioP2;P2;SDS_P1;SDS_P2;PMS_P1;PMS_P2;Temp;Humidity;BMP_temperature;BMP_pressure;BME280_temperature;BME280_humidity;BME280_pressure;Samples;Min_cycle;Max_cycle;Signal;HPM_P1;HPM_P2
2021/03/17 00:04:53;;;;;;;8.43;2.80;;;;;;;2.41;73.55;100354.91;10490228;28;20530;-66
2021/03/17 00:10:13;;;;;;;4.75;2.60;;;;;;;2.44;73.25;100354.06;10505766;28;20048;-66
2021/03/17 00:15:37;;;;;;;5.32;2.80;;;;;;;2.40;73.87;100358.34;10504628;28;20052;-67
2021/03/17 00:20:57;;;;;;;7.40;3.38;;;;;;;2.39;73.96;100355.72;10504077;28;20048;-68
2021/03/17 00:26:17;;;;;;;6.32;3.10;;;;;;;2.43;73.91;100350.56;10503513;28;20045;-65
2021/03/17 00:31:37;;;;;;;8.60;3.47;;;;;;;2.45;73.41;100354.06;10504269;28;20127;-68
2021/03/17 00:36:58;;;;;;;5.10;3.28;;;;;;;2.41;73.75;100349.72;10504010;28;20103;-66
2021/03/17 00:42:17;;;;;;;4.15;3.13;;;;;;;2.48;73.48;100351.50;10502880;28;20079;-66
2021/03/17 00:47:38;;;;;;;3.60;2.20;;;;;;;2.65;73.13;100353.28;10502567;28;20417;-66
2021/03/17 00:52:40;;;;;;;3.50;2.80;;;;;;;2.72;72.55;100355.06;10501724;28;20042;-66
2021/03/17 00:57:45;;;;;;;6.45;2.67;;;;;;;2.49;73.14;100352.34;10502942;28;20127;-66
2021/03/17 01:02:49;;;;;;;3.65;2.70;;;;;;;2.47;73.58;100354.94;10502274;28;20387;-66
2021/03/17 01:07:50;;;;;;;6.50;3.63;;;;;;;2.44;73.50;100357.53;10503101;28;20518;-67
2021/03/17 01:12:52;;;;;;;5.40;3.35;;;;;;;2.64;73.12;100359.34;10503227;28;20443;-65
2021/03/17 01:17:53;;;;;;;5.53;3.95;;;;;;;2.76;72.64;100349.91;10504103;28;20041;-67
2021/03/17 01:22:55;;;;;;;8.07;4.75;;;;;;;2.69;72.87;100349.84;10486096;28;20040;-67
2021/03/17 01:27:58;;;;;;;9.27;6.72;;;;;;;2.70;73.06;100356.78;10504478;28;20094;-67
2021/03/17 01:33:00;;;;;;;10.10;7.45;;;;;;;2.48;72.75;100346.31;10503062;28;20040;-66
2021/03/17 01:38:01;;;;;;;8.73;7.43;;;;;;;2.40;73.35;100353.16;10485368;28;20040;-68
2021/03/17 01:43:03;;;;;;;12.80;8.13;;;;;;;2.41;72.96;100348.84;10503942;28;20036;-66
2021/03/17 01:48:06;;;;;;;12.10;8.00;;;;;;;2.40;73.44;100345.38;10486182;28;20060;-67
2021/03/17 01:53:11;;;;;;;10.02;7.75;;;;;;;2.47;73.28;100349.72;10504445;28;20086;-68
2021/03/17 01:58:12;;;;;;;11.27;8.85;;;;;;;2.40;73.63;100347.97;10502174;28;20070;-66
2021/03/17 02:03:15;;;;;;;8.93;7.53;;;;;;;2.55;73.54;100335.94;10502833;28;20044;-72
2021/03/17 02:08:34;;;;;;;8.18;7.38;;;;;;;2.33;73.79;100342.72;10484787;28;20502;-66
2021/03/17 02:13:59;;;;;;;9.50;7.65;;;;;;;2.39;73.47;100333.28;10502078;28;20044;-67
2021/03/17 02:19:12;;;;;;;9.50;8.38;;;;;;;2.46;73.55;100332.44;10502481;28;20057;-67
2021/03/17 02:24:20;;;;;;;8.90;7.10;;;;;;;2.52;73.24;100335.09;10502888;28;20037;-67
2021/03/17 02:29:45;;;;;;;7.80;7.03;;;;;;;2.43;73.46;100339.34;10501472;28;20048;-69
2021/03/17 02:34:47;;;;;;;10.63;8.43;;;;;;;2.56;73.17;100333.34;10511373;28;20106;-65
2021/03/17 02:39:56;;;;;;;10.15;8.25;;;;;;;2.50;73.20;100339.38;10518711;28;20066;-65
2021/03/17 02:45:10;;;;;;;12.32;7.75;;;;;;;2.43;73.48;100341.91;10519099;28;20048;-65
2021/03/17 02:50:13;;;;;;;11.60;8.18;;;;;;;2.37;73.68;100347.09;10518424;28;20094;-65
2021/03/17 02:55:15;;;;;;;9.98;8.35;;;;;;;2.53;72.78;100344.59;10519414;28;20131;-65
2021/03/17 03:00:17;;;;;;;10.77;9.40;;;;;;;2.19;74.11;100340.91;10517469;28;20041;-65
2021/03/17 03:05:20;;;;;;;9.70;8.32;;;;;;;2.50;73.63;100335.94;10516952;28;20041;-65
2021/03/17 03:10:24;;;;;;;17.42;9.40;;;;;;;2.40;73.63;100334.16;10499888;28;20440;-63
2021/03/17 03:15:28;;;;;;;12.00;9.82;;;;;;;2.27;73.63;100338.38;10515779;28;20102;-65
2021/03/17 03:20:34;;;;;;;12.18;9.05;;;;;;;2.31;73.72;100341.88;10516375;28;20036;-65
2021/03/17 03:25:36;;;;;;;13.10;9.20;;;;;;;2.26;73.95;100341.84;10516409;28;20339;-64
2021/03/17 03:30:42;;;;;;;15.15;9.30;;;;;;;2.17;74.26;100344.34;10515087;28;20045;-64
2021/03/17 03:35:43;;;;;;;14.25;10.15;;;;;;;2.11;74.25;100352.94;10516566;28;20040;-65
2021/03/17 03:40:45;;;;;;;18.45;10.68;;;;;;;2.13;73.95;100353.84;10515705;28;20051;-65
2021/03/17 03:45:48;;;;;;;14.23;9.68;;;;;;;2.05;74.14;100365.00;10517291;28;20052;-65
2021/03/17 03:50:51;;;;;;;14.65;9.77;;;;;;;1.98;74.49;100371.84;10514687;28;20066;-64
2021/03/17 03:56:02;;;;;;;16.48;10.52;;;;;;;2.20;73.63;100376.34;10516008;28;20175;-64
2021/03/17 04:01:08;;;;;;;10.25;7.18;;;;;;;1.85;74.05;100373.47;10516919;28;20062;-64
2021/03/17 04:06:11;;;;;;;12.98;6.93;;;;;;;2.09;73.13;100378.00;10518128;28;20056;-63
2021/03/17 04:11:16;;;;;;;8.35;6.78;;;;;;;2.06;73.31;100380.56;10515918;28;20127;-64
2021/03/17 04:16:22;;;;;;;8.05;6.93;;;;;;;2.13;73.14;100378.91;10515018;28;20062;-63
2021/03/17 04:21:28;;;;;;;9.45;6.72;;;;;;;2.05;73.13;100378.84;10516141;28;20075;-63
2021/03/17 04:26:34;;;;;;;6.80;5.97;;;;;;;1.87;73.40;100376.97;10514055;28;20045;-63
2021/03/17 04:31:36;;;;;;;9.25;6.85;;;;;;;1.96;73.22;100381.38;10519395;28;20049;-65
2021/03/17 04:36:39;;;;;;;20.15;9.05;;;;;;;1.87;73.48;100383.88;10518529;28;20113;-63
2021/03/17 04:41:41;;;;;;;13.88;8.25;;;;;;;1.98;73.02;100385.69;10515387;28;20552;-64
2021/03/17 04:46:43;;;;;;;9.93;7.70;;;;;;;2.00;73.04;100386.59;10515520;28;20056;-63
2021/03/17 04:51:47;;;;;;;9.32;7.45;;;;;;;2.02;72.92;100387.47;10514978;28;20047;-64
2021/03/17 04:56:50;;;;;;;15.40;7.07;;;;;;;1.94;73.06;100389.09;10512114;28;20041;-62
2021/03/17 05:01:52;;;;;;;14.48;8.25;;;;;;;1.85;73.31;100383.84;10496497;28;20059;-63
2021/03/17 05:06:56;;;;;;;13.88;8.63;;;;;;;1.86;73.26;100388.19;10514501;28;20048;-63
2021/03/17 05:12:00;;;;;;;16.10;9.50;;;;;;;1.70;73.79;100394.06;10493948;28;20482;-65
2021/03/17 05:17:03;;;;;;;12.55;8.77;;;;;;;1.69;73.71;100398.41;10511571;28;20049;-65
2021/03/17 05:22:08;;;;;;;12.38;8.70;;;;;;;1.69;73.73;100408.75;10503630;28;20076;-67
2021/03/17 05:27:15;;;;;;;18.38;10.85;;;;;;;1.59;74.10;100406.03;10502922;28;20047;-66
2021/03/17 05:32:16;;;;;;;19.35;10.57;;;;;;;1.65;73.47;100403.53;10502891;28;20070;-67
2021/03/17 05:37:18;;;;;;;19.05;9.50;;;;;;;1.77;72.85;100394.16;10500955;28;20040;-66
2021/03/17 05:42:20;;;;;;;12.45;9.70;;;;;;;1.72;73.08;100401.00;10500493;28;20386;-66
2021/03/17 05:47:23;;;;;;;13.35;9.65;;;;;;;1.76;72.93;100407.09;10500354;28;20036;-65
2021/03/17 05:52:25;;;;;;;11.45;9.85;;;;;;;1.78;72.88;100405.41;10483293;28;20522;-66
2021/03/17 05:57:27;;;;;;;14.18;9.68;;;;;;;1.88;72.60;100411.53;10500622;28;20045;-66
2021/03/17 06:02:29;;;;;;;14.65;10.73;;;;;;;1.59;73.24;100430.22;10500848;28;20052;-65
2021/03/17 06:07:40;;;;;;;23.45;9.77;;;;;;;1.65;73.00;100432.91;10483275;28;20053;-67
2021/03/17 06:12:44;;;;;;;15.50;8.80;;;;;;;1.71;72.83;100438.13;10506013;28;20041;-66
2021/03/17 06:17:48;;;;;;;22.33;9.73;;;;;;;1.81;72.34;100438.22;10508601;28;20144;-66
2021/03/17 06:22:50;;;;;;;13.52;7.05;;;;;;;1.84;72.28;100448.63;10508490;28;20048;-66
2021/03/17 06:27:53;;;;;;;10.15;8.20;;;;;;;1.77;72.57;100452.88;10507943;28;20538;-67
2021/03/17 06:32:55;;;;;;;12.07;9.35;;;;;;;1.82;72.40;100450.38;10507890;28;20509;-67
2021/03/17 06:37:58;;;;;;;17.52;9.73;;;;;;;1.69;72.75;100459.72;10508734;28;20041;-64
2021/03/17 06:43:06;;;;;;;12.50;9.85;;;;;;;1.59;73.16;100455.28;10507491;28;20174;-67
2021/03/17 06:48:17;;;;;;;10.80;8.38;;;;;;;1.86;72.44;100462.47;10514416;28;20401;-65
2021/03/17 06:53:38;;;;;;;10.75;8.75;;;;;;;1.79;72.74;100464.16;10521325;28;20040;-65
2021/03/17 06:58:41;;;;;;;8.55;7.80;;;;;;;1.78;72.46;100454.63;10519746;28;20072;-65
2021/03/17 07:03:42;;;;;;;17.30;8.43;;;;;;;1.68;73.08;100468.31;10499705;28;20044;-64
2021/03/17 07:08:44;;;;;;;9.05;7.28;;;;;;;1.98;72.14;100467.78;10519657;28;20064;-66
2021/03/17 07:13:52;;;;;;;12.82;7.82;;;;;;;1.85;72.37;100474.56;10519715;28;20040;-65
2021/03/17 07:18:54;;;;;;;8.75;7.05;;;;;;;1.76;72.74;100464.09;10519723;28;20100;-66
2021/03/17 07:23:55;;;;;;;13.55;8.88;;;;;;;1.80;73.08;100472.78;10520088;28;20047;-64
2021/03/17 07:29:07;;;;;;;17.08;8.30;;;;;;;1.87;72.78;100478.06;10501175;28;20129;-63
2021/03/17 07:34:20;;;;;;;10.80;8.85;;;;;;;1.79;73.10;100482.28;10497971;28;20060;-63
2021/03/17 07:39:34;;;;;;;16.02;10.07;;;;;;;1.86;72.91;100483.22;10515041;28;20067;-63
2021/03/17 07:44:38;;;;;;;14.52;11.80;;;;;;;2.25;72.06;100475.81;10515331;28;20045;-62
2021/03/17 07:49:42;;;;;;;22.73;14.05;;;;;;;2.20;71.94;100481.84;10495066;28;20098;-64
2021/03/17 07:54:49;;;;;;;13.43;9.85;;;;;;;1.99;72.67;100485.97;10500501;28;20044;-63
2021/03/17 07:59:51;;;;;;;14.18;9.10;;;;;;;1.88;72.79;100497.06;10518533;28;20050;-65
2021/03/17 08:04:54;;;;;;;20.13;10.05;;;;;;;1.56;73.26;100501.91;10517386;28;20047;-64
2021/03/17 08:09:58;;;;;;;17.30;9.32;;;;;;;1.67;73.91;100505.47;10518197;28;20067;-64
2021/03/17 08:15:00;;;;;;;24.92;11.02;;;;;;;1.88;73.34;100503.13;10494276;28;20127;-64
2021/03/17 08:20:35;;;;;;;12.75;10.70;;;;;;;1.68;73.56;100502.03;10516027;28;20498;-65
2021/03/17 08:25:43;;;;;;;20.40;11.57;;;;;;;1.93;73.63;100503.19;10516084;28;20044;-64
2021/03/17 08:30:44;;;;;;;16.65;13.25;;;;;;;1.67;74.24;100502.88;10475042;28;20037;-64
2021/03/17 08:36:03;;;;;;;15.90;11.35;;;;;;;1.78;73.89;100506.47;10489209;28;20040;-64
2021/03/17 08:41:05;;;;;;;15.95;12.07;;;;;;;2.06;73.46;100502.44;10502285;22;20052;-61
2021/03/17 08:46:17;;;;;;;15.23;11.60;;;;;;;2.17;73.22;100498.25;10457238;28;20128;-62
2021/03/17 08:51:45;;;;;;;18.20;11.75;;;;;;;2.14;73.12;100499.94;10457983;28;20044;-60
2021/03/17 08:56:49;;;;;;;16.88;11.80;;;;;;;2.30;72.96;100506.13;10467192;28;20382;-61
2021/03/17 09:01:50;;;;;;;14.23;12.13;;;;;;;2.35;73.11;100512.25;10481158;28;20444;-61
2021/03/17 09:07:07;;;;;;;15.73;11.60;;;;;;;2.36;73.36;100499.28;10470687;28;20494;-62
2021/03/17 09:12:08;;;;;;;17.70;10.85;;;;;;;2.55;72.11;100500.31;10532991;28;20447;-62
2021/03/17 09:17:17;;;;;;;15.88;10.55;;;;;;;2.57;72.66;100510.69;10540004;28;20056;-62
2021/03/17 09:23:01;;;;;;;15.82;11.98;;;;;;;2.45;72.57;100512.34;10539961;28;20093;-62
2021/03/17 09:28:06;;;;;;;13.45;10.90;;;;;;;2.58;71.73;100505.53;10370917;28;20132;-62
2021/03/17 09:33:14;;;;;;;14.05;11.82;;;;;;;2.46;72.77;100511.47;10370870;28;20050;-62
2021/03/17 09:38:19;;;;;;;22.50;11.25;;;;;;;2.56;72.45;100520.19;10370433;28;20120;-62
2021/03/17 09:43:49;;;;;;;28.30;13.50;;;;;;;2.43;72.29;100536.50;10370337;28;20050;-62
2021/03/17 09:48:52;;;;;;;16.45;10.93;;;;;;;2.47;72.28;100525.31;10369796;28;20496;-62
2021/03/17 09:53:57;;;;;;;18.00;11.35;;;;;;;2.86;71.55;100518.72;10370208;28;20084;-62
2021/03/17 09:59:20;;;;;;;15.75;11.63;;;;;;;2.60;72.21;100519.38;10370051;28;20061;-61
2021/03/17 10:04:24;;;;;;;27.38;12.77;;;;;;;2.70;71.75;100516.00;10506284;28;20056;-62
2021/03/17 10:09:31;;;;;;;25.42;11.77;;;;;;;2.76;71.74;100515.19;10539290;28;20497;-61
2021/03/17 10:14:35;;;;;;;16.58;12.20;;;;;;;2.87;71.50;100515.25;10540285;28;20036;-62
2021/03/17 10:19:37;;;;;;;19.67;10.80;;;;;;;2.98;70.31;100519.66;10540019;28;20560;-62
2021/03/17 10:24:42;;;;;;;15.18;11.60;;;;;;;2.85;71.08;100522.19;10540407;28;20113;-62
2021/03/17 10:29:46;;;;;;;16.77;11.27;;;;;;;3.37;69.56;100514.72;10539058;28;20040;-62
2021/03/17 10:34:49;;;;;;;16.45;11.32;;;;;;;2.93;71.12;100518.78;10539027;28;20040;-62
2021/03/17 10:39:51;;;;;;;16.55;11.23;;;;;;;3.00;69.94;100517.94;10539137;28;20110;-62
2021/03/17 10:45:10;;;;;;;11.48;10.27;;;;;;;3.12;70.28;100517.16;10539213;28;20047;-62
2021/03/17 10:50:32;;;;;;;12.18;9.63;;;;;;;3.34;69.21;100519.88;10520807;28;20131;-61
2021/03/17 10:55:34;;;;;;;13.15;9.88;;;;;;;3.34;69.02;100509.50;10540015;28;20071;-64
2021/03/17 11:00:36;;;;;;;12.85;11.55;;;;;;;3.90;69.87;100514.94;10528480;28;20043;-62
2021/03/17 11:05:37;;;;;;;10.93;9.73;;;;;;;4.43;67.46;100515.91;10546669;28;20044;-62
2021/03/17 11:10:46;;;;;;;14.18;10.68;;;;;;;4.09;68.16;100509.78;10546165;28;20408;-62
2021/03/17 11:15:54;;;;;;;14.43;9.07;;;;;;;4.41;66.75;100513.28;10546441;28;20169;-62
2021/03/17 11:21:15;;;;;;;16.95;9.15;;;;;;;3.97;67.62;100516.66;10527741;28;20044;-62
2021/03/17 11:26:27;;;;;;;13.35;9.55;;;;;;;4.13;66.35;100514.13;10545777;28;20044;-61
2021/03/17 11:31:34;;;;;;;11.82;10.13;;;;;;;4.04;67.27;100514.97;10545769;28;20425;-62
2021/03/17 11:36:37;;;;;;;12.13;11.02;;;;;;;3.83;68.88;100513.16;10545059;28;20044;-62
2021/03/17 11:41:40;;;;;;;11.93;10.00;;;;;;;3.67;69.62;100516.56;10543801;28;20039;-61
2021/03/17 11:46:41;;;;;;;13.63;11.18;;;;;;;3.58;70.31;100511.31;10498507;28;20045;-61
2021/03/17 11:51:44;;;;;;;12.48;10.32;;;;;;;3.57;69.77;100520.88;10500039;28;20375;-61
2021/03/17 11:56:47;;;;;;;15.15;12.30;;;;;;;3.45;71.17;100515.59;10454501;28;20048;-62
2021/03/17 12:01:48;;;;;;;12.20;10.98;;;;;;;3.49;70.49;100512.16;10460552;28;20099;-62
2021/03/17 12:06:50;;;;;;;21.83;12.20;;;;;;;3.29;71.76;100522.47;10501688;28;20052;-62
2021/03/17 12:11:54;;;;;;;13.98;12.55;;;;;;;3.22;71.63;100520.69;10501561;28;20496;-61
2021/03/17 12:16:55;;;;;;;17.42;15.60;;;;;;;3.10;72.44;100523.19;10479215;28;20398;-61
2021/03/17 12:21:57;;;;;;;17.35;14.07;;;;;;;3.07;72.02;100518.00;10499605;28;20041;-61
2021/03/17 12:26:58;;;;;;;19.83;15.93;;;;;;;2.85;72.86;100523.03;10499857;28;20131;-62
2021/03/17 12:31:59;;;;;;;21.05;15.07;;;;;;;2.71;73.63;100516.88;10493236;28;20086;-64
2021/03/17 12:37:01;;;;;;;30.33;16.52;;;;;;;2.82;73.36;100515.22;10498336;28;20151;-62
2021/03/17 12:42:02;;;;;;;23.50;15.35;;;;;;;2.72;73.61;100516.88;10496311;28;20098;-60
2021/03/17 12:47:04;;;;;;;25.55;14.13;;;;;;;2.91;73.55;100512.69;10479648;28;20072;-62
2021/03/17 12:52:06;;;;;;;15.13;13.57;;;;;;;3.14;72.55;100519.75;10499917;28;20041;-62
2021/03/17 12:57:08;;;;;;;22.60;14.48;;;;;;;3.19;73.32;100521.53;10499958;28;20071;-63
2021/03/17 13:02:10;;;;;;;16.67;13.45;;;;;;;3.48;72.95;100528.63;10498855;28;20043;-62
2021/03/17 13:07:12;;;;;;;16.13;14.45;;;;;;;3.47;72.47;100519.97;10501775;28;20041;-63
2021/03/17 13:12:13;;;;;;;21.25;14.40;;;;;;;3.59;71.57;100519.16;10500345;28;20189;-62
2021/03/17 13:17:14;;;;;;;16.25;13.55;;;;;;;3.58;71.92;100519.13;10495823;28;20090;-62
2021/03/17 13:22:15;;;;;;;17.92;13.77;;;;;;;3.72;71.83;100525.28;10497333;28;20044;-62
2021/03/17 13:27:17;;;;;;;18.15;13.32;;;;;;;3.70;71.50;100532.19;10498469;28;20044;-62
2021/03/17 13:32:20;;;;;;;20.15;11.85;;;;;;;3.70;71.17;100535.66;10498502;28;20490;-62
2021/03/17 13:37:22;;;;;;;12.45;10.30;;;;;;;3.10;71.74;100549.16;10497848;28;20049;-62
2021/03/17 13:42:24;;;;;;;11.48;10.07;;;;;;;2.76;71.70;100559.31;10497954;28;20048;-61
2021/03/17 13:47:25;;;;;;;10.18;9.27;;;;;;;2.57;72.62;100560.00;10497348;28;20041;-60
2021/03/17 13:52:27;;;;;;;10.30;9.30;;;;;;;2.51;73.46;100553.03;10497719;28;20040;-61
2021/03/17 13:57:28;;;;;;;12.30;11.00;;;;;;;2.70;74.26;100554.94;10480640;28;20452;-61
2021/03/17 14:02:30;;;;;;;16.00;12.65;;;;;;;2.85;74.33;100546.41;10497384;28;20494;-60
2021/03/17 14:07:31;;;;;;;13.02;11.73;;;;;;;3.36;73.71;100545.00;10497592;28;20048;-61
2021/03/17 14:12:33;;;;;;;17.60;11.02;;;;;;;3.43;73.87;100552.00;10497470;28;20479;-61
2021/03/17 14:17:35;;;;;;;11.35;10.25;;;;;;;3.76;72.87;100548.69;10498465;28;20040;-61
2021/03/17 14:22:38;;;;;;;10.48;9.40;;;;;;;3.82;71.91;100547.84;10478925;28;20037;-59
2021/03/17 14:27:40;;;;;;;9.90;8.98;;;;;;;3.61;72.21;100551.22;10497659;28;20106;-61
2021/03/17 14:32:42;;;;;;;8.63;7.82;;;;;;;3.73;71.61;100559.06;10482632;28;20098;-61
2021/03/17 14:37:45;;;;;;;7.68;6.95;;;;;;;3.68;71.61;100554.72;10504964;28;20041;-62
2021/03/17 14:42:46;;;;;;;7.50;6.82;;;;;;;3.54;71.65;100558.13;10523649;22;20404;-64
2021/03/17 14:47:49;;;;;;;6.88;6.25;;;;;;;3.89;70.32;100551.31;10515643;28;20523;-64
2021/03/17 14:52:50;;;;;;;7.20;6.53;;;;;;;3.69;70.25;100559.06;10514957;28;20036;-65
2021/03/17 14:57:52;;;;;;;7.53;6.88;;;;;;;3.71;70.13;100552.13;10514079;28;20048;-63
2021/03/17 15:02:55;;;;;;;9.05;8.15;;;;;;;3.79;69.38;100546.09;10513653;28;20040;-63
2021/03/17 15:07:56;;;;;;;15.93;7.90;;;;;;;4.00;69.72;100552.25;10518609;28;20055;-64
2021/03/17 15:12:59;;;;;;;7.88;7.10;;;;;;;4.25;68.29;100555.75;10481068;28;20479;-65
2021/03/17 15:18:01;;;;;;;8.43;7.30;;;;;;;4.41;68.70;100562.75;10490640;28;20032;-65
2021/03/17 15:23:04;;;;;;;7.78;7.00;;;;;;;4.32;68.92;100575.72;10493275;28;20048;-64
2021/03/17 15:28:12;;;;;;;7.70;6.68;;;;;;;4.10;68.90;100579.16;10510686;28;20056;-65
2021/03/17 15:33:14;;;;;;;8.30;7.60;;;;;;;4.19;69.44;100590.44;10514158;28;20076;-64
2021/03/17 15:38:16;;;;;;;7.47;6.78;;;;;;;4.10;68.71;100589.56;10507242;28;20045;-65
2021/03/17 15:43:21;;;;;;;8.20;7.50;;;;;;;4.20;69.24;100597.38;10499847;28;20045;-65
2021/03/17 15:48:23;;;;;;;7.97;7.18;;;;;;;4.00;69.19;100607.72;10482251;28;20049;-65
2021/03/17 15:53:25;;;;;;;7.80;7.00;;;;;;;3.82;69.23;100612.00;10471356;28;20037;-65
2021/03/17 15:58:30;;;;;;;6.53;5.82;;;;;;;3.88;68.21;100612.88;10506985;28;20131;-64
2021/03/17 16:03:32;;;;;;;6.47;5.72;;;;;;;4.00;67.94;100607.72;10498790;28;20041;-63
2021/03/17 16:08:37;;;;;;;6.47;5.78;;;;;;;3.87;67.56;100607.69;10516188;28;20359;-64
2021/03/17 16:13:39;;;;;;;6.93;6.22;;;;;;;3.78;68.44;100605.91;10500626;28;20501;-65
2021/03/17 16:18:42;;;;;;;7.55;6.82;;;;;;;3.59;69.12;100617.94;10508223;28;20163;-65
2021/03/17 16:23:44;;;;;;;7.88;7.15;;;;;;;3.78;68.70;100635.38;10493521;28;20387;-64
2021/03/17 16:28:53;;;;;;;5.72;5.22;;;;;;;3.02;70.23;100663.41;10494210;28;20044;-64
2021/03/17 16:33:56;;;;;;;6.60;5.88;;;;;;;2.35;71.03;100666.19;10510982;28;20103;-67
2021/03/17 16:38:58;;;;;;;6.60;5.82;;;;;;;2.18;71.19;100667.72;10505832;28;20051;-64
2021/03/17 16:43:59;;;;;;;6.65;5.93;;;;;;;1.82;72.62;100673.28;10501562;28;20413;-65
2021/03/17 16:49:01;;;;;;;6.25;5.63;;;;;;;1.64;73.44;100668.69;10503110;28;20048;-65
2021/03/17 16:54:03;;;;;;;5.32;4.82;;;;;;;1.50;74.01;100677.13;10504202;28;20143;-65
2021/03/17 16:59:17;;;;;;;6.32;5.72;;;;;;;1.49;74.32;100679.69;10505264;28;20044;-66
2021/03/17 17:04:18;;;;;;;6.57;4.55;;;;;;;1.50;74.03;100679.72;10504769;28;20056;-67
2021/03/17 17:09:19;;;;;;;7.88;5.10;;;;;;;1.80;73.97;100686.19;10505309;28;20448;-66
2021/03/17 17:14:21;;;;;;;5.25;4.75;;;;;;;1.49;74.14;100693.53;10507216;28;20048;-66
2021/03/17 17:19:22;;;;;;;5.43;4.93;;;;;;;1.32;75.06;100701.88;10505774;28;20052;-67
2021/03/17 17:24:24;;;;;;;5.93;5.43;;;;;;;1.51;75.16;100716.88;10506051;28;20040;-67
2021/03/17 17:29:39;;;;;;;5.82;5.30;;;;;;;1.73;74.28;100725.88;10504050;28;20047;-66
2021/03/17 17:34:40;;;;;;;6.05;5.55;;;;;;;1.68;74.35;100730.97;10504444;28;20037;-66
2021/03/17 17:39:42;;;;;;;4.82;4.32;;;;;;;1.60;74.51;100719.63;10504159;28;20040;-66
2021/03/17 17:44:44;;;;;;;5.00;4.50;;;;;;;1.45;74.93;100716.75;10504322;28;20051;-65
2021/03/17 17:49:45;;;;;;;4.95;3.80;;;;;;;1.32;75.23;100728.63;10503225;28;20109;-67
2021/03/17 17:54:47;;;;;;;6.15;3.00;;;;;;;1.23;75.30;100734.53;10503915;28;20098;-66
2021/03/17 17:59:57;;;;;;;4.05;3.15;;;;;;;1.23;75.50;100739.72;10504492;28;20079;-67
2021/03/17 18:05:10;;;;;;;3.67;3.13;;;;;;;1.32;75.25;100748.50;10506792;28;20037;-66
2021/03/17 18:10:15;;;;;;;8.00;6.05;;;;;;;1.63;74.36;100749.88;10511211;28;20470;-65
2021/03/17 18:15:18;;;;;;;4.75;3.90;;;;;;;1.62;74.46;100743.81;10495289;28;20482;-66
2021/03/17 18:20:24;;;;;;;5.35;4.50;;;;;;;1.38;74.70;100759.84;10513084;28;20192;-65
2021/03/17 18:25:28;;;;;;;4.95;4.13;;;;;;;1.46;75.17;100766.03;10486436;28;20132;-66
2021/03/17 18:30:31;;;;;;;6.70;5.68;;;;;;;1.57;74.98;100773.09;10470398;28;20448;-66
2021/03/17 18:35:35;;;;;;;9.68;8.68;;;;;;;1.29;75.59;100769.19;10500766;28;20110;-66
2021/03/17 18:40:37;;;;;;;10.55;8.57;;;;;;;1.24;75.97;100776.88;10504736;28;20037;-66
2021/03/17 18:45:38;;;;;;;8.63;7.82;;;;;;;1.72;74.71;100762.97;10467839;28;20056;-66
2021/03/17 18:50:40;;;;;;;9.43;8.35;;;;;;;1.45;74.87;100777.22;10451746;28;20052;-66
2021/03/17 18:55:44;;;;;;;8.60;7.90;;;;;;;1.33;75.52;100770.94;10469191;28;20045;-65
2021/03/17 19:01:06;;;;;;;9.38;7.43;;;;;;;1.72;74.31;100765.56;10500743;28;20041;-67
2021/03/17 19:06:08;;;;;;;9.15;7.78;;;;;;;1.34;75.24;100773.59;10494044;28;20475;-67
2021/03/17 19:11:12;;;;;;;10.70;9.63;;;;;;;1.06;76.13;100782.56;10509594;28;20037;-67
2021/03/17 19:16:15;;;;;;;8.98;8.18;;;;;;;1.11;76.48;100782.69;10473791;28;20048;-65
2021/03/17 19:21:17;;;;;;;11.00;8.63;;;;;;;1.09;76.34;100782.63;10491098;28;20121;-66
2021/03/17 19:26:19;;;;;;;9.65;8.68;;;;;;;1.23;76.08;100775.09;10491062;28;20052;-66
2021/03/17 19:31:30;;;;;;;11.07;9.95;;;;;;;1.13;76.04;100775.78;10490137;28;20090;-67
2021/03/17 19:36:36;;;;;;;10.85;9.73;;;;;;;1.15;76.18;100771.50;10491860;28;20044;-67
2021/03/17 19:41:53;;;;;;;;;;;;;;;1.69;74.62;100761.22;10489644;28;20387;-66
2021/03/17 19:46:55;;;;;;;9.45;8.55;;;;;;;1.52;74.56;100766.13;10472033;28;19920;-67
2021/03/17 19:51:59;;;;;;;10.70;8.07;;;;;;;1.16;75.32;100774.13;10472279;28;20072;-66
2021/03/17 19:57:19;;;;;;;9.88;8.95;;;;;;;0.99;75.97;100788.47;10508048;28;20053;-67
2021/03/17 20:02:40;;;;;;;9.63;8.60;;;;;;;1.09;75.76;100781.75;10507337;28;20044;-68
2021/03/17 20:07:50;;;;;;;14.27;11.82;;;;;;;1.40;74.66;100772.81;10488250;28;20524;-67
2021/03/17 20:12:52;;;;;;;12.38;10.55;;;;;;;1.26;74.67;100781.22;10488191;28;20100;-67
2021/03/17 20:18:12;;;;;;;31.00;27.85;;;;;;;1.10;75.58;100791.25;10492433;28;20052;-67
2021/03/17 20:23:30;;;;;;;19.55;17.77;;;;;;;0.93;76.07;100784.06;10487384;28;20045;-66
2021/03/17 20:28:32;;;;;;;14.52;13.30;;;;;;;1.05;75.94;100791.19;10506095;28;20116;-66
2021/03/17 20:33:52;;;;;;;10.18;9.30;;;;;;;1.18;75.86;100782.78;10504646;28;20044;-67
2021/03/17 20:38:54;;;;;;;9.27;8.40;;;;;;;1.53;74.56;100772.19;10486681;28;20501;-67
2021/03/17 20:43:58;;;;;;;8.50;7.63;;;;;;;1.49;74.49;100776.44;10504787;22;20036;-69
2021/03/17 20:49:00;;;;;;;9.65;8.82;;;;;;;1.48;74.73;100779.00;10491285;28;20041;-67
2021/03/17 20:54:02;;;;;;;9.13;8.32;;;;;;;1.58;74.52;100778.31;10490634;28;20126;-68
2021/03/17 20:59:14;;;;;;;11.43;10.38;;;;;;;1.52;75.00;100784.25;10493804;28;20052;-68
2021/03/17 21:04:15;;;;;;;11.63;10.60;;;;;;;1.19;75.55;100801.78;10489930;28;20048;-69
2021/03/17 21:09:22;;;;;;;12.88;11.77;;;;;;;1.33;75.21;100795.16;10489596;28;20508;-67
2021/03/17 21:14:26;;;;;;;;;;;;;;;1.22;75.37;100794.94;10512097;28;20502;-67
2021/03/17 21:19:28;;;;;;;17.52;13.05;;;;;;;1.02;76.80;100811.84;10491633;28;19920;-68
2021/03/17 21:24:30;;;;;;;15.45;13.98;;;;;;;1.20;75.98;100806.16;10486795;28;20044;-69
2021/03/17 21:29:31;;;;;;;15.63;14.10;;;;;;;1.47;75.45;100801.44;10486865;28;20049;-68
2021/03/17 21:34:40;;;;;;;17.33;15.57;;;;;;;1.67;74.62;100804.38;10487735;28;20051;-68
2021/03/17 21:40:18;;;;;;;14.85;13.45;;;;;;;1.46;74.78;100798.81;10489348;28;20076;-67
2021/03/17 21:45:21;;;;;;;14.52;13.13;;;;;;;1.13;75.19;100806.88;10513268;28;20509;-67
2021/03/17 21:50:48;;;;;;;13.90;12.50;;;;;;;1.45;74.78;100812.63;10507765;28;20506;-67
2021/03/17 21:55:51;;;;;;;13.68;12.38;;;;;;;1.48;74.72;100815.28;10505233;28;20036;-67
2021/03/17 22:00:55;;;;;;;15.13;13.77;;;;;;;1.23;75.58;100820.00;10506093;28;20041;-67
2021/03/17 22:05:57;;;;;;;13.60;12.30;;;;;;;1.07;76.02;100819.72;10505362;28;20048;-68
2021/03/17 22:10:59;;;;;;;12.63;11.32;;;;;;;1.48;74.86;100807.50;10502850;28;20044;-67
2021/03/17 22:16:00;;;;;;;10.82;9.93;;;;;;;1.57;74.42;100820.63;10503986;28;20441;-68
2021/03/17 22:21:08;;;;;;;11.68;10.68;;;;;;;1.57;74.55;100807.66;10487644;28;20040;-68
2021/03/17 22:26:10;;;;;;;9.95;9.15;;;;;;;1.58;74.39;100799.03;10504449;28;20132;-66
2021/03/17 22:31:11;;;;;;;11.23;10.25;;;;;;;1.32;75.03;100798.56;10503754;28;20128;-68
2021/03/17 22:36:13;;;;;;;11.32;10.18;;;;;;;1.35;75.30;100796.06;10486508;28;20143;-68
2021/03/17 22:41:14;;;;;;;11.10;10.20;;;;;;;1.48;74.66;100802.31;10503692;28;20045;-67
2021/03/17 22:46:16;;;;;;;11.75;10.55;;;;;;;1.64;74.23;100804.34;10506621;28;20075;-66
2021/03/17 22:51:17;;;;;;;10.57;9.68;;;;;;;1.60;74.36;100802.53;10507356;28;20404;-67
2021/03/17 22:56:19;;;;;;;12.85;11.35;;;;;;;1.75;73.82;100799.31;10511251;28;20552;-68
2021/03/17 23:01:20;;;;;;;13.02;11.73;;;;;;;1.38;74.38;100803.88;10511395;28;20100;-67
2021/03/17 23:06:22;;;;;;;13.57;12.38;;;;;;;1.44;74.70;100803.97;10492868;28;20044;-68
2021/03/17 23:11:30;;;;;;;14.02;12.75;;;;;;;1.41;74.95;100806.50;10492687;28;20048;-68
2021/03/17 23:16:32;;;;;;;15.68;14.25;;;;;;;1.56;74.80;100799.88;10510337;28;20470;-67
2021/03/17 23:21:34;;;;;;;14.32;13.02;;;;;;;1.47;74.61;100791.09;10510514;28;20440;-67
2021/03/17 23:26:41;;;;;;;12.60;11.52;;;;;;;1.66;74.46;100794.00;10491466;28;20048;-68